Navarino, Wisconsin
Current Conditions -  °F | °C
As of 9:15 PM on Thursday 18 Dec 2014 (Local Time) from KEZS Reporting Station
Clear Clear  
Wind Chill: -7°   Ceiling: Unl
Heat Index: -7°   Visibility: 10mi
Dew Point: -8°   Wind: 0mph
Humidity: 91%   Direction: NA
Pressure: 30.26"   Gusts: NA
Location:  44.7353°N, 88.4379°W
Report Text: KEZS 190315Z AUTO 00000KT 10SM CLR M07/M08 A3026 RMK AO2 T10681080
Loading
Personal Weather Stations






























Interactive Weather Map New forecast layout! Learn more

10-Day Weather Forecast

Advertisements
Track Severe Weather on mobile